createdAt,value
2023-01-25T00:01:12.637Z,101280.00
2023-01-25T00:02:45.920Z,101276.00
2023-01-25T00:04:19.910Z,101268.00
2023-01-25T00:06:01.409Z,101268.00
2023-01-25T00:07:34.795Z,101259.00
2023-01-25T00:09:10.719Z,101269.00
2023-01-25T00:10:43.962Z,101269.00
2023-01-25T00:12:17.172Z,101260.00
2023-01-25T00:13:50.302Z,101260.00
2023-01-25T00:15:23.487Z,101256.00
2023-01-25T00:16:56.683Z,101259.00
2023-01-25T00:18:30.159Z,101273.00
2023-01-25T00:20:03.457Z,101271.00
2023-01-25T00:21:36.801Z,101270.00
2023-01-25T00:23:10.082Z,101264.00
2023-01-25T00:24:44.572Z,101252.00
2023-01-25T00:26:18.529Z,101250.00
2023-01-25T00:27:52.498Z,101246.00
2023-01-25T00:29:25.725Z,101254.00
2023-01-25T00:31:02.369Z,101247.00
2023-01-25T00:32:50.299Z,101244.00
2023-01-25T00:34:47.543Z,101247.00
2023-01-25T00:36:41.947Z,101236.00
2023-01-25T00:38:31.060Z,101249.00
2023-01-25T00:40:07.396Z,101240.00
2023-01-25T00:41:39.737Z,101248.00
2023-01-25T00:43:14.599Z,101242.00
2023-01-25T00:44:47.738Z,101231.00
2023-01-25T00:46:21.074Z,101230.00
2023-01-25T00:47:56.277Z,101228.00
2023-01-25T00:49:31.788Z,101232.00
2023-01-25T00:51:05.178Z,101228.00
2023-01-25T00:52:38.265Z,101228.00
2023-01-25T00:54:10.630Z,101223.00
2023-01-25T00:55:53.162Z,101221.00
2023-01-25T00:57:26.443Z,101218.00
2023-01-25T00:58:59.692Z,101224.00
2023-01-25T01:00:32.807Z,101222.00
2023-01-25T01:02:06.444Z,101224.00
2023-01-25T01:03:39.954Z,101224.00
2023-01-25T01:05:13.687Z,101227.00
2023-01-25T01:06:46.604Z,101212.00
2023-01-25T01:08:20.644Z,101209.00
2023-01-25T01:09:54.018Z,101226.00
2023-01-25T01:11:28.632Z,101204.00
2023-01-25T01:13:01.827Z,101209.00
2023-01-25T01:14:34.995Z,101209.00
2023-01-25T01:16:12.305Z,101207.00
2023-01-25T01:17:45.517Z,101201.00
2023-01-25T01:19:18.614Z,101214.00
2023-01-25T01:20:53.022Z,101211.00
2023-01-25T01:22:28.050Z,101211.00
2023-01-25T01:24:00.380Z,101205.00
2023-01-25T01:25:34.170Z,101213.00
2023-01-25T01:27:09.003Z,101206.00
2023-01-25T01:28:41.781Z,101218.00
2023-01-25T01:30:15.653Z,101216.00
2023-01-25T01:31:52.017Z,101220.00
2023-01-25T01:33:29.114Z,101218.00
2023-01-25T01:35:02.296Z,101213.00
2023-01-25T01:36:35.587Z,101212.00
2023-01-25T01:38:08.757Z,101209.00
2023-01-25T01:39:42.068Z,101213.00
2023-01-25T01:41:16.097Z,101218.00
2023-01-25T01:43:02.995Z,101213.00
2023-01-25T01:44:53.080Z,101211.00
2023-01-25T01:46:34.707Z,101217.00
2023-01-25T01:48:16.506Z,101216.00
2023-01-25T01:49:55.115Z,101220.00
2023-01-25T01:51:39.447Z,101219.00
2023-01-25T01:53:14.043Z,101214.00
2023-01-25T01:54:54.497Z,101212.00
2023-01-25T01:56:37.092Z,101217.00
2023-01-25T01:58:12.082Z,101208.00
2023-01-25T01:59:52.085Z,101212.00
2023-01-25T02:01:25.385Z,101202.00
2023-01-25T02:03:00.263Z,101215.00
2023-01-25T02:04:34.613Z,101211.00
2023-01-25T02:06:14.364Z,101214.00
2023-01-25T02:07:52.664Z,101212.00
2023-01-25T02:09:30.590Z,101219.00
2023-01-25T02:11:05.236Z,101214.00
2023-01-25T02:12:39.439Z,101205.00
2023-01-25T02:14:17.823Z,101223.00
2023-01-25T02:15:52.246Z,101224.00
2023-01-25T02:17:29.598Z,101216.00
2023-01-25T02:19:08.512Z,101220.00
2023-01-25T02:20:44.000Z,101214.00
2023-01-25T02:22:22.983Z,101218.00
2023-01-25T02:24:05.025Z,101212.00
2023-01-25T02:25:44.070Z,101204.00
2023-01-25T02:27:18.065Z,101206.00
2023-01-25T02:28:58.074Z,101202.00
2023-01-25T02:30:32.242Z,101203.00
2023-01-25T02:32:07.635Z,101202.00
2023-01-25T02:33:40.795Z,101200.00
2023-01-25T02:35:21.081Z,101200.00
2023-01-25T02:36:55.932Z,101197.00
2023-01-25T02:38:34.453Z,101201.00
2023-01-25T02:40:09.290Z,101195.00
2023-01-25T02:41:48.047Z,101195.00
2023-01-25T02:43:21.570Z,101201.00
2023-01-25T02:44:54.726Z,101194.00
2023-01-25T02:46:32.792Z,101192.00
2023-01-25T02:48:07.007Z,101188.00
2023-01-25T02:49:40.308Z,101187.00
2023-01-25T02:51:14.250Z,101188.00
2023-01-25T02:52:47.458Z,101184.00
2023-01-25T02:54:20.292Z,101183.00
2023-01-25T02:55:53.413Z,101189.00
2023-01-25T02:57:27.902Z,101189.00
2023-01-25T02:59:05.338Z,101186.00
2023-01-25T03:00:40.052Z,101175.00
2023-01-25T03:02:14.000Z,101180.00
2023-01-25T03:03:47.794Z,101179.00
2023-01-25T03:05:23.314Z,101184.00
2023-01-25T03:07:01.435Z,101181.00
2023-01-25T03:08:35.179Z,101187.00
2023-01-25T03:10:10.215Z,101188.00
2023-01-25T03:11:43.389Z,101178.00
2023-01-25T03:13:17.450Z,101173.00
2023-01-25T03:14:50.692Z,101171.00
2023-01-25T03:16:25.857Z,101172.00
2023-01-25T03:18:02.890Z,101170.00
2023-01-25T03:19:37.345Z,101175.00
2023-01-25T03:21:14.275Z,101174.00
2023-01-25T03:22:46.863Z,101172.00
2023-01-25T03:24:20.264Z,101176.00
2023-01-25T03:25:54.411Z,101169.00
2023-01-25T03:27:29.323Z,101162.00
2023-01-25T03:29:10.938Z,101175.00
2023-01-25T03:30:49.857Z,101174.00
2023-01-25T03:32:23.718Z,101170.00
2023-01-25T03:33:57.053Z,101176.00
2023-01-25T03:35:34.072Z,101175.00
2023-01-25T03:37:06.295Z,101175.00
2023-01-25T03:38:41.028Z,101167.00
2023-01-25T03:40:15.146Z,101174.00
2023-01-25T03:41:52.964Z,101165.00
2023-01-25T03:43:26.053Z,101160.00
2023-01-25T03:45:00.789Z,101168.00
2023-01-25T03:46:33.706Z,101171.00
2023-01-25T03:48:07.789Z,101171.00
2023-01-25T03:49:41.013Z,101175.00
2023-01-25T03:51:15.476Z,101162.00
2023-01-25T03:52:50.609Z,101166.00
2023-01-25T03:54:24.160Z,101164.00
2023-01-25T03:56:00.030Z,101152.00
2023-01-25T03:57:33.474Z,101153.00
2023-01-25T03:59:11.381Z,101152.00
2023-01-25T04:00:47.301Z,101151.00
2023-01-25T04:02:20.492Z,101143.00
2023-01-25T04:03:52.813Z,101139.00
2023-01-25T04:05:25.980Z,101139.00
2023-01-25T04:06:59.967Z,101132.00
2023-01-25T04:08:33.524Z,101133.00
2023-01-25T04:10:10.833Z,101135.00
2023-01-25T04:11:50.856Z,101128.00
2023-01-25T04:13:26.028Z,101118.00
2023-01-25T04:14:59.922Z,101114.00
2023-01-25T04:16:36.025Z,101110.00
2023-01-25T04:18:29.393Z,101110.00
2023-01-25T04:20:02.755Z,101114.00
2023-01-25T04:21:42.309Z,101108.00
2023-01-25T04:23:15.525Z,101109.00
2023-01-25T04:24:49.233Z,101111.00
2023-01-25T04:26:22.392Z,101109.00
2023-01-25T04:28:01.006Z,101109.00
2023-01-25T04:29:41.150Z,101103.00
2023-01-25T04:31:16.959Z,101106.00
2023-01-25T04:32:51.888Z,101095.00
2023-01-25T04:34:31.148Z,101093.00
2023-01-25T04:36:04.804Z,101095.00
2023-01-25T04:37:38.416Z,101089.00
2023-01-25T04:39:12.693Z,101096.00
2023-01-25T04:40:46.601Z,101095.00
2023-01-25T04:42:18.784Z,101086.00
2023-01-25T04:43:55.802Z,101084.00
2023-01-25T04:45:29.621Z,101088.00
2023-01-25T04:47:03.887Z,101095.00
2023-01-25T04:48:38.430Z,101085.00
2023-01-25T04:50:12.392Z,101080.00
2023-01-25T04:51:45.483Z,101079.00
2023-01-25T04:53:18.612Z,101079.00
2023-01-25T04:54:51.830Z,101087.00
2023-01-25T04:56:25.747Z,101074.00
2023-01-25T04:58:02.019Z,101079.00
2023-01-25T04:59:35.473Z,101075.00
2023-01-25T05:01:08.682Z,101076.00
2023-01-25T05:02:41.977Z,101077.00
2023-01-25T05:04:16.641Z,101080.00
2023-01-25T05:05:51.414Z,101073.00
2023-01-25T05:07:29.005Z,101081.00
2023-01-25T05:09:02.416Z,101081.00
2023-01-25T05:10:36.527Z,101073.00
2023-01-25T05:12:29.678Z,101082.00
2023-01-25T05:14:07.603Z,101063.00
2023-01-25T05:15:41.303Z,101065.00
2023-01-25T05:17:13.610Z,101081.00
2023-01-25T05:18:49.406Z,101079.00
2023-01-25T05:20:28.677Z,101064.00
2023-01-25T05:22:02.848Z,101065.00
2023-01-25T05:23:43.065Z,101069.00
2023-01-25T05:25:30.318Z,101071.00
2023-01-25T05:27:06.276Z,101074.00
2023-01-25T05:28:54.140Z,101068.00
2023-01-25T05:30:35.180Z,101062.00
2023-01-25T05:32:21.719Z,101067.00
2023-01-25T05:33:54.350Z,101071.00
2023-01-25T05:35:29.259Z,101059.00
2023-01-25T05:37:03.765Z,101057.00
2023-01-25T05:38:37.426Z,101067.00
2023-01-25T05:40:12.298Z,101063.00
2023-01-25T05:41:45.584Z,101069.00
2023-01-25T05:43:18.933Z,101069.00
2023-01-25T05:44:52.205Z,101069.00
2023-01-25T05:46:26.724Z,101077.00
2023-01-25T05:48:00.779Z,101068.00
2023-01-25T05:49:34.115Z,101075.00
2023-01-25T05:51:09.600Z,101079.00
2023-01-25T05:52:42.662Z,101064.00
2023-01-25T05:54:18.092Z,101076.00
2023-01-25T05:55:57.508Z,101069.00
2023-01-25T05:57:30.792Z,101063.00
2023-01-25T05:59:05.721Z,101068.00
2023-01-25T06:00:38.868Z,101065.00
2023-01-25T06:02:12.048Z,101071.00
2023-01-25T06:03:47.270Z,101067.00
2023-01-25T06:05:23.379Z,101071.00
2023-01-25T06:06:58.241Z,101061.00
2023-01-25T06:08:32.619Z,101073.00
2023-01-25T06:10:07.625Z,101075.00
2023-01-25T06:11:44.757Z,101065.00
2023-01-25T06:13:18.269Z,101072.00
2023-01-25T06:14:51.415Z,101069.00
2023-01-25T06:16:25.571Z,101069.00
2023-01-25T06:18:11.824Z,101068.00
2023-01-25T06:20:06.752Z,101064.00
2023-01-25T06:21:42.573Z,101066.00
2023-01-25T06:23:17.137Z,101063.00
2023-01-25T06:24:50.233Z,101062.00
2023-01-25T06:26:23.376Z,101057.00
2023-01-25T06:27:57.030Z,101062.00
2023-01-25T06:29:30.423Z,101064.00
2023-01-25T06:31:09.555Z,101056.00
2023-01-25T06:32:42.733Z,101063.00
2023-01-25T06:34:16.926Z,101065.00
2023-01-25T06:35:50.155Z,101055.00
2023-01-25T06:37:23.332Z,101059.00
2023-01-25T06:38:57.773Z,101073.00
2023-01-25T06:40:30.917Z,101066.00
2023-01-25T06:42:04.066Z,101064.00
2023-01-25T06:43:37.967Z,101068.00
2023-01-25T06:45:12.790Z,101065.00
2023-01-25T06:46:45.947Z,101057.00
2023-01-25T06:48:19.072Z,101060.00
2023-01-25T06:49:52.374Z,101065.00
2023-01-25T06:51:25.435Z,101065.00
2023-01-25T06:52:58.576Z,101069.00
2023-01-25T06:54:33.019Z,101064.00
2023-01-25T06:56:10.744Z,101070.00
2023-01-25T06:57:44.675Z,101068.00
2023-01-25T06:59:17.775Z,101065.00
2023-01-25T07:00:49.906Z,101068.00
2023-01-25T07:02:23.212Z,101070.00
2023-01-25T07:03:59.378Z,101072.00
2023-01-25T07:05:32.517Z,101069.00
2023-01-25T07:07:09.127Z,101073.00
2023-01-25T07:08:42.227Z,101068.00
2023-01-25T07:10:17.154Z,101074.00
2023-01-25T07:11:50.328Z,101059.00
2023-01-25T07:13:24.006Z,101068.00
2023-01-25T07:14:57.770Z,101068.00
2023-01-25T07:16:36.483Z,101068.00
2023-01-25T07:18:16.332Z,101062.00
2023-01-25T07:19:49.867Z,101058.00
2023-01-25T07:21:24.739Z,101060.00
2023-01-25T07:22:57.823Z,101053.00
2023-01-25T07:24:31.505Z,101046.00
2023-01-25T07:26:07.958Z,101054.00
2023-01-25T07:27:41.143Z,101055.00
2023-01-25T07:29:17.014Z,101047.00
2023-01-25T07:30:50.350Z,101052.00
2023-01-25T07:32:23.513Z,101058.00
2023-01-25T07:33:59.334Z,101056.00
2023-01-25T07:35:33.008Z,101057.00
2023-01-25T07:37:06.175Z,101040.00
2023-01-25T07:38:39.968Z,101043.00
2023-01-25T07:40:14.751Z,101046.00
2023-01-25T07:41:49.395Z,101038.00
2023-01-25T07:43:25.698Z,101041.00
2023-01-25T07:44:59.619Z,101045.00
2023-01-25T07:46:33.304Z,101048.00
2023-01-25T07:48:10.931Z,101047.00
2023-01-25T07:49:44.076Z,101040.00
2023-01-25T07:51:26.953Z,101051.00
2023-01-25T07:53:00.325Z,101053.00
2023-01-25T07:54:33.450Z,101039.00
2023-01-25T07:56:07.724Z,101062.00
2023-01-25T07:57:42.332Z,101050.00
2023-01-25T07:59:16.187Z,101054.00
2023-01-25T08:00:49.325Z,101051.00
2023-01-25T08:02:23.093Z,101054.00
2023-01-25T08:03:57.387Z,101042.00
2023-01-25T08:05:30.623Z,101044.00
2023-01-25T08:07:03.843Z,101043.00
2023-01-25T08:08:41.513Z,101050.00
2023-01-25T08:10:15.470Z,101044.00
2023-01-25T08:11:49.294Z,101049.00
2023-01-25T08:13:23.863Z,101058.00
2023-01-25T08:14:57.500Z,101052.00
2023-01-25T08:16:34.369Z,101049.00
2023-01-25T08:18:07.569Z,101063.00
2023-01-25T08:19:40.844Z,101057.00
2023-01-25T08:21:14.106Z,101041.00
2023-01-25T08:22:47.256Z,101054.00
2023-01-25T08:24:21.086Z,101045.00
2023-01-25T08:25:54.524Z,101041.00
2023-01-25T08:27:28.758Z,101044.00
2023-01-25T08:29:03.591Z,101037.00
2023-01-25T08:30:41.216Z,101032.00
2023-01-25T08:32:21.782Z,101040.00
2023-01-25T08:33:56.024Z,101030.00
2023-01-25T08:35:29.313Z,101042.00
2023-01-25T08:37:02.615Z,101032.00
2023-01-25T08:38:36.712Z,101029.00
2023-01-25T08:40:13.794Z,101042.00
2023-01-25T08:41:46.995Z,101038.00
2023-01-25T08:43:20.372Z,101036.00
2023-01-25T08:44:55.353Z,101032.00
2023-01-25T08:46:32.127Z,101041.00
2023-01-25T08:48:06.445Z,101041.00
2023-01-25T08:49:39.723Z,101022.00
2023-01-25T08:51:15.745Z,101032.00
2023-01-25T08:52:48.964Z,101037.00
2023-01-25T08:54:22.430Z,101027.00
2023-01-25T08:55:55.665Z,101020.00
2023-01-25T08:57:28.855Z,101020.00
2023-01-25T08:59:02.172Z,101025.00
2023-01-25T09:00:36.653Z,101027.00
2023-01-25T09:02:12.836Z,101026.00
2023-01-25T09:03:48.475Z,101015.00
2023-01-25T09:05:21.663Z,101022.00
2023-01-25T09:06:55.104Z,101016.00
2023-01-25T09:08:28.552Z,101023.00
2023-01-25T09:10:01.825Z,101015.00
2023-01-25T09:11:38.042Z,101017.00
2023-01-25T09:13:11.947Z,101018.00
2023-01-25T09:14:45.251Z,101013.00
2023-01-25T09:16:28.259Z,101010.00
2023-01-25T09:18:02.390Z,101002.00
2023-01-25T09:19:35.490Z,100999.00
2023-01-25T09:21:10.896Z,101007.00
2023-01-25T09:22:44.163Z,100996.00
2023-01-25T09:24:17.465Z,101007.00
2023-01-25T09:25:51.063Z,101003.00
2023-01-25T09:27:24.393Z,101003.00
2023-01-25T09:28:57.529Z,100997.00
2023-01-25T09:30:45.598Z,100995.00
2023-01-25T09:32:31.030Z,101003.00
2023-01-25T09:34:04.490Z,101001.00
2023-01-25T09:35:37.836Z,101000.00
2023-01-25T09:37:11.509Z,100994.00
2023-01-25T09:38:45.047Z,100996.00
2023-01-25T09:40:23.900Z,100985.00
2023-01-25T09:42:23.353Z,100983.00
2023-01-25T09:44:17.492Z,100993.00
2023-01-25T09:45:50.848Z,100983.00
2023-01-25T09:47:35.914Z,100988.00
2023-01-25T09:49:27.883Z,100986.00
2023-01-25T09:51:22.291Z,100986.00
2023-01-25T09:53:31.169Z,100979.00
2023-01-25T09:55:12.744Z,100978.00
2023-01-25T09:56:50.378Z,100968.00
2023-01-25T09:58:32.537Z,100969.00
2023-01-25T10:00:17.367Z,100974.00
2023-01-25T10:01:56.418Z,100977.00
2023-01-25T10:03:43.784Z,100977.00
2023-01-25T10:05:21.796Z,100983.00
2023-01-25T10:07:03.841Z,100965.00
2023-01-25T10:08:52.514Z,100972.00
2023-01-25T10:10:36.420Z,100966.00
2023-01-25T10:12:20.163Z,100956.00
2023-01-25T10:13:56.193Z,100952.00
2023-01-25T10:15:35.329Z,100957.00
2023-01-25T10:17:16.161Z,100960.00
2023-01-25T10:19:00.817Z,100959.00
2023-01-25T10:20:43.864Z,100958.00
2023-01-25T10:22:21.699Z,100954.00
2023-01-25T10:24:47.463Z,100949.00
2023-01-25T10:26:27.301Z,100960.00
2023-01-25T10:28:21.771Z,100951.00
2023-01-25T10:30:01.035Z,100953.00
2023-01-25T10:31:45.300Z,100957.00
2023-01-25T10:33:21.839Z,100953.00
2023-01-25T10:35:00.355Z,100953.00
2023-01-25T10:36:33.518Z,100947.00
2023-01-25T10:38:21.173Z,100948.00
2023-01-25T10:40:04.681Z,100938.00
2023-01-25T10:41:42.643Z,100942.00
2023-01-25T10:43:21.061Z,100937.00
2023-01-25T10:44:54.474Z,100931.00
2023-01-25T10:46:29.094Z,100931.00
2023-01-25T10:48:08.432Z,100934.00
2023-01-25T10:49:44.796Z,100936.00
2023-01-25T10:51:37.263Z,100930.00
2023-01-25T10:53:27.392Z,100928.00
2023-01-25T10:55:16.183Z,100921.00
2023-01-25T10:56:50.130Z,100911.00
2023-01-25T10:58:33.486Z,100911.00
2023-01-25T11:00:20.773Z,100911.00
2023-01-25T11:01:54.615Z,100911.00
2023-01-25T11:03:37.224Z,100907.00
2023-01-25T11:05:33.734Z,100908.00
2023-01-25T11:07:29.205Z,100909.00
2023-01-25T11:09:23.879Z,100913.00
2023-01-25T11:11:00.512Z,100901.00
2023-01-25T11:12:33.952Z,100906.00
2023-01-25T11:14:18.505Z,100897.00
2023-01-25T11:15:55.145Z,100892.00
2023-01-25T11:17:32.355Z,100898.00
2023-01-25T11:19:28.082Z,100889.00
2023-01-25T11:21:14.869Z,100897.00
2023-01-25T11:22:54.426Z,100887.00
2023-01-25T11:24:29.296Z,100892.00
2023-01-25T11:26:19.461Z,100879.00
2023-01-25T11:27:52.649Z,100897.00
2023-01-25T11:29:26.518Z,100884.00
2023-01-25T11:31:00.216Z,100879.00
2023-01-25T11:32:34.446Z,100876.00
2023-01-25T11:34:15.064Z,100881.00
2023-01-25T11:36:13.986Z,100878.00
2023-01-25T11:38:10.055Z,100863.00
2023-01-25T11:39:57.163Z,100862.00
2023-01-25T11:41:44.777Z,100861.00
2023-01-25T11:43:55.591Z,100859.00
2023-01-25T11:46:01.713Z,100853.00
2023-01-25T11:47:55.542Z,100845.00
2023-01-25T11:49:47.066Z,100846.00
2023-01-25T11:51:30.039Z,100835.00
2023-01-25T11:53:36.199Z,100808.00
2023-01-25T11:55:27.030Z,100817.00
2023-01-25T11:57:13.357Z,100811.00
2023-01-25T11:59:08.443Z,100806.00
2023-01-25T12:01:02.837Z,100797.00
2023-01-25T12:03:17.125Z,100791.00
2023-01-25T12:05:22.608Z,100790.00
2023-01-25T12:07:03.781Z,100781.00
2023-01-25T12:08:54.500Z,100784.00
2023-01-25T12:10:46.006Z,100785.00
2023-01-25T12:12:41.810Z,100771.00
2023-01-25T12:14:30.440Z,100765.00
2023-01-25T12:16:24.266Z,100764.00
2023-01-25T12:18:43.064Z,100758.00
2023-01-25T12:20:44.326Z,100758.00
2023-01-25T12:22:44.976Z,100746.00
2023-01-25T12:24:40.931Z,100749.00
2023-01-25T12:26:29.816Z,100746.00
2023-01-25T12:28:15.646Z,100734.00
2023-01-25T12:29:57.412Z,100733.00
2023-01-25T12:31:43.546Z,100731.00
2023-01-25T12:33:23.331Z,100723.00
2023-01-25T12:35:14.799Z,100731.00
2023-01-25T12:36:51.293Z,100718.00
2023-01-25T12:38:31.124Z,100714.00
2023-01-25T12:40:13.489Z,100710.00
2023-01-25T12:41:54.386Z,100711.00
2023-01-25T12:43:33.780Z,100706.00
2023-01-25T12:45:16.803Z,100705.00
2023-01-25T12:47:00.354Z,100699.00
2023-01-25T12:48:41.160Z,100693.00
2023-01-25T12:50:21.326Z,100695.00
2023-01-25T12:51:59.743Z,100686.00
2023-01-25T12:53:38.341Z,100691.00
2023-01-25T12:55:17.065Z,100681.00
2023-01-25T12:57:02.351Z,100684.00
2023-01-25T12:58:48.137Z,100678.00
2023-01-25T13:00:30.721Z,100678.00
2023-01-25T13:02:43.031Z,100662.00
2023-01-25T13:04:41.239Z,100674.00
2023-01-25T13:06:21.637Z,100661.00
2023-01-25T13:08:06.549Z,100659.00
2023-01-25T13:09:51.748Z,100652.00
2023-01-25T13:11:43.918Z,100651.00
2023-01-25T13:13:25.736Z,100657.00
2023-01-25T13:15:02.995Z,100641.00
2023-01-25T13:17:01.492Z,100632.00
2023-01-25T13:18:42.830Z,100629.00
2023-01-25T13:20:49.703Z,100628.00
2023-01-25T13:22:58.663Z,100623.00
2023-01-25T13:24:35.283Z,100621.00
2023-01-25T13:26:48.810Z,100611.00
2023-01-25T13:28:45.690Z,100614.00
2023-01-25T13:30:34.754Z,100612.00
2023-01-25T13:32:35.785Z,100599.00
2023-01-25T13:34:11.311Z,100596.00
2023-01-25T13:35:51.761Z,100583.00
2023-01-25T13:37:31.641Z,100576.00
2023-01-25T13:39:43.927Z,100598.00
2023-01-25T13:41:35.209Z,100597.00
2023-01-25T13:43:22.310Z,100591.00
2023-01-25T13:45:08.924Z,100599.00
2023-01-25T13:46:52.721Z,100609.00
2023-01-25T13:48:37.476Z,100602.00
2023-01-25T13:50:23.600Z,100583.00
2023-01-25T13:51:57.428Z,100592.00
2023-01-25T13:53:35.067Z,100596.00
2023-01-25T13:55:18.840Z,100597.00
2023-01-25T13:57:05.294Z,100595.00
2023-01-25T13:58:48.158Z,100588.00
2023-01-25T14:00:22.915Z,100582.00
2023-01-25T14:02:00.336Z,100576.00
2023-01-25T14:03:41.771Z,100576.00
2023-01-25T14:05:20.791Z,100583.00
2023-01-25T14:07:00.187Z,100580.00
2023-01-25T14:08:33.806Z,100590.00
2023-01-25T14:10:16.566Z,100578.00
2023-01-25T14:11:56.347Z,100595.00
2023-01-25T14:13:29.756Z,100581.00
2023-01-25T14:15:24.237Z,100587.00
2023-01-25T14:17:17.585Z,100583.00
2023-01-25T14:18:50.723Z,100578.00
2023-01-25T14:20:24.039Z,100568.00
2023-01-25T14:22:23.194Z,100571.00
2023-01-25T14:24:11.556Z,100575.00
2023-01-25T14:25:44.750Z,100573.00
2023-01-25T14:27:24.459Z,100572.00
2023-01-25T14:29:02.593Z,100566.00
2023-01-25T14:30:37.526Z,100568.00
2023-01-25T14:32:21.555Z,100567.00
2023-01-25T14:33:58.841Z,100568.00
2023-01-25T14:35:53.756Z,100565.00
2023-01-25T14:37:27.731Z,100566.00
2023-01-25T14:39:04.509Z,100558.00
2023-01-25T14:40:38.306Z,100556.00
2023-01-25T14:42:12.527Z,100556.00
2023-01-25T14:43:50.895Z,100555.00
2023-01-25T14:45:26.903Z,100555.00
2023-01-25T14:47:29.419Z,100559.00
2023-01-25T14:49:25.403Z,100550.00
2023-01-25T14:51:06.634Z,100544.00
2023-01-25T14:52:41.795Z,100561.00
2023-01-25T14:54:20.125Z,100549.00
2023-01-25T14:55:56.149Z,100553.00
2023-01-25T14:57:35.646Z,100560.00
2023-01-25T14:59:25.157Z,100550.00
2023-01-25T15:01:02.858Z,100543.00
2023-01-25T15:02:46.530Z,100555.00
2023-01-25T15:04:20.317Z,100551.00
2023-01-25T15:05:55.366Z,100550.00
2023-01-25T15:07:43.476Z,100543.00
2023-01-25T15:09:36.185Z,100558.00
2023-01-25T15:11:45.344Z,100559.00
2023-01-25T15:13:24.131Z,100550.00
2023-01-25T15:14:59.165Z,100540.00
2023-01-25T15:16:36.309Z,100540.00
2023-01-25T15:18:46.008Z,100527.00
2023-01-25T15:20:36.540Z,100527.00
2023-01-25T15:22:09.956Z,100532.00
2023-01-25T15:23:46.045Z,100522.00
2023-01-25T15:25:24.322Z,100515.00
2023-01-25T15:26:58.020Z,100521.00
2023-01-25T15:28:34.384Z,100510.00
2023-01-25T15:30:13.416Z,100520.00
2023-01-25T15:31:46.590Z,100515.00
2023-01-25T15:33:23.751Z,100518.00
2023-01-25T15:34:58.165Z,100520.00
2023-01-25T15:36:33.885Z,100510.00
2023-01-25T15:38:10.599Z,100502.00
2023-01-25T15:39:43.732Z,100500.00
2023-01-25T15:41:18.533Z,100486.00
2023-01-25T15:42:57.337Z,100492.00
2023-01-25T15:44:30.579Z,100494.00
2023-01-25T15:46:05.975Z,100484.00
2023-01-25T15:47:39.925Z,100487.00
2023-01-25T15:49:25.107Z,100488.00
2023-01-25T15:50:59.948Z,100491.00
2023-01-25T15:52:33.635Z,100476.00
2023-01-25T15:54:07.634Z,100477.00
2023-01-25T15:55:41.182Z,100484.00
2023-01-25T15:57:28.353Z,100477.00
2023-01-25T15:59:07.593Z,100468.00
2023-01-25T16:00:41.309Z,100463.00
2023-01-25T16:02:14.715Z,100469.00
2023-01-25T16:03:48.282Z,100467.00
2023-01-25T16:05:21.569Z,100482.00
2023-01-25T16:06:57.326Z,100481.00
2023-01-25T16:08:31.728Z,100476.00
2023-01-25T16:10:05.697Z,100473.00
2023-01-25T16:11:38.893Z,100469.00
2023-01-25T16:13:15.392Z,100471.00
2023-01-25T16:14:49.036Z,100468.00
2023-01-25T16:16:25.035Z,100463.00
2023-01-25T16:17:58.412Z,100473.00
2023-01-25T16:19:33.323Z,100485.00
2023-01-25T16:21:06.913Z,100474.00
2023-01-25T16:22:41.330Z,100476.00
2023-01-25T16:24:14.808Z,100483.00
2023-01-25T16:25:50.279Z,100485.00
2023-01-25T16:27:25.572Z,100473.00
2023-01-25T16:28:58.965Z,100476.00
2023-01-25T16:30:35.370Z,100478.00
2023-01-25T16:32:08.825Z,100471.00
2023-01-25T16:33:42.542Z,100470.00
2023-01-25T16:35:16.884Z,100478.00
2023-01-25T16:36:51.108Z,100483.00
2023-01-25T16:38:25.734Z,100478.00
2023-01-25T16:39:59.092Z,100478.00
2023-01-25T16:41:34.294Z,100480.00
2023-01-25T16:43:07.514Z,100471.00
2023-01-25T16:44:40.931Z,100470.00
2023-01-25T16:46:18.727Z,100459.00
2023-01-25T16:47:52.771Z,100464.00
2023-01-25T16:49:27.647Z,100459.00
2023-01-25T16:51:02.346Z,100460.00
2023-01-25T16:52:35.589Z,100467.00
2023-01-25T16:54:13.285Z,100459.00
2023-01-25T16:55:48.169Z,100463.00
2023-01-25T16:57:21.485Z,100462.00
2023-01-25T16:58:57.276Z,100462.00
2023-01-25T17:00:32.771Z,100448.00
2023-01-25T17:02:06.541Z,100463.00
2023-01-25T17:03:40.075Z,100459.00
2023-01-25T17:05:13.643Z,100462.00
2023-01-25T17:06:49.818Z,100467.00
2023-01-25T17:08:28.203Z,100471.00
2023-01-25T17:10:08.429Z,100463.00
2023-01-25T17:11:42.756Z,100457.00
2023-01-25T17:13:17.191Z,100461.00
2023-01-25T17:14:50.372Z,100460.00
2023-01-25T17:16:25.742Z,100454.00
2023-01-25T17:17:58.965Z,100455.00
2023-01-25T17:19:32.854Z,100448.00
2023-01-25T17:21:08.484Z,100454.00
2023-01-25T17:22:44.309Z,100446.00
2023-01-25T17:24:21.670Z,100450.00
2023-01-25T17:26:08.710Z,100453.00
2023-01-25T17:27:44.763Z,100436.00
2023-01-25T17:29:21.779Z,100439.00
2023-01-25T17:30:55.049Z,100452.00
2023-01-25T17:32:40.897Z,100455.00
2023-01-25T17:34:19.155Z,100449.00
2023-01-25T17:35:58.421Z,100461.00
2023-01-25T17:37:31.788Z,100447.00
2023-01-25T17:39:06.719Z,100445.00
2023-01-25T17:40:40.205Z,100442.00
2023-01-25T17:42:21.135Z,100437.00
2023-01-25T17:43:54.230Z,100437.00
2023-01-25T17:45:28.767Z,100430.00
2023-01-25T17:47:02.147Z,100427.00
2023-01-25T17:48:35.275Z,100428.00
2023-01-25T17:50:10.667Z,100427.00
2023-01-25T17:51:44.853Z,100418.00
2023-01-25T17:53:18.041Z,100417.00
2023-01-25T17:54:51.205Z,100413.00
2023-01-25T17:56:24.799Z,100417.00
2023-01-25T17:57:59.664Z,100419.00
2023-01-25T17:59:38.011Z,100419.00
2023-01-25T18:01:14.511Z,100402.00
2023-01-25T18:02:47.885Z,100414.00
2023-01-25T18:04:26.794Z,100409.00
2023-01-25T18:06:00.199Z,100414.00
2023-01-25T18:07:33.722Z,100419.00
2023-01-25T18:09:08.592Z,100417.00
2023-01-25T18:10:42.529Z,100422.00
2023-01-25T18:12:18.032Z,100422.00
2023-01-25T18:13:56.860Z,100428.00
2023-01-25T18:15:30.084Z,100426.00
2023-01-25T18:17:03.239Z,100428.00
2023-01-25T18:18:41.680Z,100431.00
2023-01-25T18:20:15.931Z,100429.00
2023-01-25T18:21:49.295Z,100431.00
2023-01-25T18:23:23.704Z,100435.00
2023-01-25T18:24:57.325Z,100436.00
2023-01-25T18:26:37.883Z,100429.00
2023-01-25T18:28:14.831Z,100431.00
2023-01-25T18:30:04.383Z,100419.00
2023-01-25T18:31:42.533Z,100415.00
2023-01-25T18:33:16.123Z,100418.00
2023-01-25T18:34:49.686Z,100415.00
2023-01-25T18:36:23.159Z,100416.00
2023-01-25T18:37:56.750Z,100411.00
2023-01-25T18:39:31.565Z,100409.00
2023-01-25T18:41:08.214Z,100407.00
2023-01-25T18:42:42.064Z,100408.00